createdAt,value
2017-09-21T00:00:02.649Z,14.77
2017-09-21T00:01:03.087Z,14.84
2017-09-21T00:02:03.513Z,14.94
2017-09-21T00:03:03.941Z,14.94
2017-09-21T00:04:04.419Z,15.03
2017-09-21T00:05:04.804Z,14.81
2017-09-21T00:06:05.244Z,14.77
2017-09-21T00:07:05.672Z,14.86
2017-09-21T00:08:06.120Z,14.94
2017-09-21T00:09:06.535Z,14.86
2017-09-21T00:10:06.979Z,14.92
2017-09-21T00:11:07.414Z,14.81
2017-09-21T00:12:07.827Z,14.85
2017-09-21T00:13:08.265Z,14.81
2017-09-21T00:14:08.693Z,14.81
2017-09-21T00:15:09.126Z,14.78
2017-09-21T00:16:09.556Z,14.79
2017-09-21T00:17:09.992Z,14.78
2017-09-21T00:18:10.423Z,14.79
2017-09-21T00:19:10.855Z,14.79
2017-09-21T00:20:11.287Z,14.79
2017-09-21T00:21:11.718Z,14.73
2017-09-21T00:22:12.144Z,14.81
2017-09-21T00:23:12.578Z,14.82
2017-09-21T00:24:13.010Z,14.79
2017-09-21T00:25:13.439Z,14.82
2017-09-21T00:26:13.873Z,14.79
2017-09-21T00:27:14.308Z,14.78
2017-09-21T00:28:14.739Z,14.82
2017-09-21T00:29:15.165Z,14.84
2017-09-21T00:30:15.613Z,14.84
2017-09-21T00:31:16.032Z,14.84
2017-09-21T00:32:16.459Z,14.78
2017-09-21T00:33:16.895Z,14.84
2017-09-21T00:34:17.323Z,14.77
2017-09-21T00:35:17.754Z,14.82
2017-09-21T00:36:18.187Z,14.88
2017-09-21T00:37:18.626Z,14.86
2017-09-21T00:38:19.052Z,14.69
2017-09-21T00:39:19.491Z,14.82
2017-09-21T00:40:19.918Z,14.66
2017-09-21T00:41:20.339Z,14.73
2017-09-21T00:42:20.775Z,14.69
2017-09-21T00:43:21.203Z,14.53
2017-09-21T00:44:21.643Z,14.66
2017-09-21T00:45:22.065Z,14.53
2017-09-21T00:46:22.506Z,14.66
2017-09-21T00:47:22.930Z,14.79
2017-09-21T00:48:23.362Z,14.73
2017-09-21T00:49:23.793Z,14.70
2017-09-21T00:50:24.222Z,14.68
2017-09-21T00:51:24.659Z,14.68
2017-09-21T00:52:25.087Z,14.68
2017-09-21T00:53:25.529Z,14.60
2017-09-21T00:54:25.953Z,14.60
2017-09-21T00:55:26.392Z,14.65
2017-09-21T00:56:26.811Z,14.69
2017-09-21T00:57:27.240Z,14.70
2017-09-21T00:58:27.677Z,14.62
2017-09-21T00:59:28.102Z,14.70
2017-09-21T01:00:28.538Z,14.73
2017-09-21T01:01:28.965Z,14.77
2017-09-21T01:02:29.401Z,14.63
2017-09-21T01:03:29.828Z,14.63
2017-09-21T01:04:30.257Z,14.60
2017-09-21T01:05:30.688Z,14.59
2017-09-21T01:06:31.121Z,14.68
2017-09-21T01:07:31.553Z,14.68
2017-09-21T01:08:31.984Z,14.70
2017-09-21T01:09:32.414Z,14.54
2017-09-21T01:10:32.850Z,14.69
2017-09-21T01:11:33.280Z,14.68
2017-09-21T01:12:33.705Z,14.62
2017-09-21T01:13:34.137Z,14.68
2017-09-21T01:14:34.573Z,14.68
2017-09-21T01:15:35.003Z,14.70
2017-09-21T01:16:35.430Z,14.66
2017-09-21T01:17:35.862Z,14.68
2017-09-21T01:18:36.300Z,14.70
2017-09-21T01:19:36.721Z,14.66
2017-09-21T01:20:37.156Z,14.62
2017-09-21T01:21:37.593Z,14.68
2017-09-21T01:22:38.018Z,14.66
2017-09-21T01:23:38.451Z,14.60
2017-09-21T01:24:38.878Z,14.72
2017-09-21T01:25:39.316Z,14.68
2017-09-21T01:26:39.741Z,14.72
2017-09-21T01:27:40.171Z,14.69
2017-09-21T01:28:40.612Z,14.77
2017-09-21T01:29:41.040Z,14.79
2017-09-21T01:30:41.463Z,14.73
2017-09-21T01:31:41.898Z,14.73
2017-09-21T01:32:42.329Z,14.79
2017-09-21T01:33:42.771Z,14.79
2017-09-21T01:34:43.188Z,14.81
2017-09-21T01:35:43.633Z,14.78
2017-09-21T01:36:44.060Z,14.78
2017-09-21T01:37:44.485Z,14.77
2017-09-21T01:38:44.918Z,14.77
2017-09-21T01:39:45.345Z,14.77
2017-09-21T01:40:45.785Z,14.79
2017-09-21T01:41:46.216Z,14.70
2017-09-21T01:42:46.649Z,14.77
2017-09-21T01:43:47.077Z,14.69
2017-09-21T01:44:47.506Z,14.77
2017-09-21T01:45:47.936Z,14.78
2017-09-21T01:46:48.367Z,14.72
2017-09-21T01:47:48.795Z,14.63
2017-09-21T01:48:49.226Z,14.65
2017-09-21T01:49:49.665Z,14.68
2017-09-21T01:50:50.089Z,14.68
2017-09-21T01:51:50.526Z,14.63
2017-09-21T01:52:50.950Z,14.62
2017-09-21T01:53:51.385Z,14.65
2017-09-21T01:54:51.821Z,14.65
2017-09-21T01:55:52.247Z,14.63
2017-09-21T01:56:52.684Z,14.62
2017-09-21T01:57:53.106Z,14.68
2017-09-21T01:58:53.547Z,14.69
2017-09-21T01:59:53.975Z,14.70
2017-09-21T02:00:55.391Z,14.68
2017-09-21T02:01:54.830Z,14.65
2017-09-21T02:02:55.272Z,14.66
2017-09-21T02:03:55.699Z,14.63
2017-09-21T02:04:56.130Z,14.69
2017-09-21T02:05:56.558Z,14.72
2017-09-21T02:06:56.993Z,14.68
2017-09-21T02:07:57.502Z,14.79
2017-09-21T02:08:57.859Z,14.70
2017-09-21T02:09:58.288Z,14.72
2017-09-21T02:10:58.714Z,14.58
2017-09-21T02:11:59.147Z,14.48
2017-09-21T02:12:59.579Z,14.51
2017-09-21T02:14:00.011Z,14.73
2017-09-21T02:15:00.447Z,14.68
2017-09-21T02:16:00.873Z,14.53
2017-09-21T02:17:01.305Z,14.47
2017-09-21T02:18:01.758Z,14.50
2017-09-21T02:19:02.169Z,14.47
2017-09-21T02:20:02.619Z,14.63
2017-09-21T02:21:03.040Z,14.54
2017-09-21T02:22:03.460Z,14.62
2017-09-21T02:23:03.897Z,14.66
2017-09-21T02:24:04.326Z,14.63
2017-09-21T02:25:04.756Z,14.63
2017-09-21T02:26:05.193Z,14.62
2017-09-21T02:27:05.640Z,14.72
2017-09-21T02:28:06.055Z,14.65
2017-09-21T02:29:06.486Z,14.66
2017-09-21T02:30:06.921Z,14.73
2017-09-21T02:31:07.363Z,14.69
2017-09-21T02:32:07.784Z,14.66
2017-09-21T02:33:08.210Z,14.66
2017-09-21T02:34:08.662Z,14.65
2017-09-21T02:35:09.076Z,14.68
2017-09-21T02:36:09.513Z,14.59
2017-09-21T02:37:09.937Z,14.66
2017-09-21T02:38:10.375Z,14.62
2017-09-21T02:39:10.799Z,14.65
2017-09-21T02:40:11.234Z,14.81
2017-09-21T02:41:11.668Z,14.73
2017-09-21T02:42:12.094Z,14.78
2017-09-21T02:43:12.532Z,14.70
2017-09-21T02:44:12.958Z,14.77
2017-09-21T02:45:13.394Z,14.73
2017-09-21T02:46:13.825Z,14.68
2017-09-21T02:47:14.256Z,14.73
2017-09-21T02:48:14.690Z,14.68
2017-09-21T02:49:15.115Z,14.62
2017-09-21T02:50:15.549Z,14.55
2017-09-21T02:51:15.981Z,14.50
2017-09-21T02:52:16.410Z,14.58
2017-09-21T02:53:16.842Z,14.60
2017-09-21T02:54:17.289Z,14.41
2017-09-21T02:55:17.732Z,14.22
2017-09-21T02:56:18.148Z,14.30
2017-09-21T02:57:18.577Z,14.32
2017-09-21T02:58:19.006Z,14.29
2017-09-21T02:59:19.438Z,14.17
2017-09-21T03:00:19.871Z,14.11
2017-09-21T03:01:20.302Z,14.07
2017-09-21T03:02:20.730Z,14.10
2017-09-21T03:03:21.162Z,14.07
2017-09-21T03:04:21.599Z,14.08
2017-09-21T03:05:22.020Z,14.11
2017-09-21T03:06:22.453Z,14.17
2017-09-21T03:07:22.886Z,14.08
2017-09-21T03:08:23.319Z,14.18
2017-09-21T03:09:23.748Z,14.28
2017-09-21T03:10:24.193Z,14.29
2017-09-21T03:11:24.608Z,14.20
2017-09-21T03:12:25.042Z,14.30
2017-09-21T03:13:25.473Z,14.32
2017-09-21T03:14:25.919Z,14.28
2017-09-21T03:15:26.336Z,14.32
2017-09-21T03:16:26.766Z,14.15
2017-09-21T03:17:27.200Z,14.15
2017-09-21T03:18:27.635Z,14.20
2017-09-21T03:19:28.062Z,14.14
2017-09-21T03:20:28.492Z,14.23
2017-09-21T03:21:28.939Z,14.22
2017-09-21T03:22:29.359Z,14.25
2017-09-21T03:23:29.793Z,14.41
2017-09-21T03:24:30.234Z,14.32
2017-09-21T03:25:30.652Z,14.43
2017-09-21T03:26:31.080Z,14.51
2017-09-21T03:27:31.514Z,14.45
2017-09-21T03:28:31.946Z,14.28
2017-09-21T03:29:32.378Z,14.30
2017-09-21T03:30:32.808Z,14.30
2017-09-21T03:31:33.248Z,14.32
2017-09-21T03:32:33.688Z,14.35
2017-09-21T03:33:34.103Z,14.35
2017-09-21T03:34:34.534Z,14.30
2017-09-21T03:35:34.974Z,14.17
2017-09-21T03:36:35.394Z,14.17
2017-09-21T03:37:35.826Z,14.29
2017-09-21T03:38:36.267Z,14.17
2017-09-21T03:39:36.688Z,14.15
2017-09-21T03:40:37.118Z,14.08
2017-09-21T03:41:37.551Z,14.07
2017-09-21T03:42:37.985Z,14.08
2017-09-21T03:43:38.421Z,14.07
2017-09-21T03:44:38.845Z,14.05
2017-09-21T03:45:39.280Z,14.05
2017-09-21T03:46:39.708Z,13.99
2017-09-21T03:47:40.156Z,13.97
2017-09-21T03:48:40.569Z,13.93
2017-09-21T03:49:41.005Z,13.96
2017-09-21T03:50:41.437Z,13.97
2017-09-21T03:51:41.871Z,14.00
2017-09-21T03:52:42.296Z,13.96
2017-09-21T03:53:42.730Z,13.97
2017-09-21T03:54:43.158Z,13.95
2017-09-21T03:55:43.588Z,13.96
2017-09-21T03:56:44.022Z,14.00
2017-09-21T03:57:44.455Z,14.05
2017-09-21T03:58:44.891Z,13.89
2017-09-21T03:59:45.317Z,13.92
2017-09-21T04:00:45.751Z,13.95
2017-09-21T04:01:46.175Z,13.95
2017-09-21T04:02:46.609Z,13.90
2017-09-21T04:03:47.039Z,13.89
2017-09-21T04:04:47.473Z,13.89
2017-09-21T04:05:47.898Z,13.89
2017-09-21T04:06:48.334Z,13.90
2017-09-21T04:07:48.762Z,13.90
2017-09-21T04:08:49.200Z,13.81
2017-09-21T04:09:49.622Z,13.97
2017-09-21T04:10:50.058Z,13.90
2017-09-21T04:11:50.488Z,13.90
2017-09-21T04:12:50.925Z,13.83
2017-09-21T04:13:51.348Z,13.79
2017-09-21T04:14:51.789Z,13.87
2017-09-21T04:15:52.211Z,13.78
2017-09-21T04:16:52.639Z,13.95
2017-09-21T04:17:53.073Z,13.90
2017-09-21T04:18:53.506Z,13.86
2017-09-21T04:19:53.932Z,13.89
2017-09-21T04:20:54.367Z,14.00
2017-09-21T04:21:54.804Z,13.86
2017-09-21T04:22:55.232Z,13.89
2017-09-21T04:23:55.658Z,13.86
2017-09-21T04:24:56.088Z,13.74
2017-09-21T04:25:56.520Z,13.68
2017-09-21T04:26:56.956Z,13.70
2017-09-21T04:27:57.385Z,13.71
2017-09-21T04:28:57.815Z,13.67
2017-09-21T04:29:58.244Z,13.57
2017-09-21T04:30:58.674Z,13.62
2017-09-21T04:31:59.107Z,13.56
2017-09-21T04:32:59.538Z,13.62
2017-09-21T04:33:59.975Z,13.70
2017-09-21T04:35:00.399Z,13.67
2017-09-21T04:36:00.835Z,13.68
2017-09-21T04:37:01.255Z,13.63
2017-09-21T04:38:01.691Z,13.68
2017-09-21T04:39:02.130Z,13.67
2017-09-21T04:40:02.551Z,13.71
2017-09-21T04:41:02.980Z,13.71
2017-09-21T04:42:03.412Z,13.71
2017-09-21T04:43:03.841Z,13.71
2017-09-21T04:44:04.272Z,13.70
2017-09-21T04:45:04.701Z,13.71
2017-09-21T04:46:05.133Z,13.65
2017-09-21T04:47:05.575Z,13.70
2017-09-21T04:48:05.995Z,13.74
2017-09-21T04:49:06.424Z,13.59
2017-09-21T04:50:06.854Z,13.70
2017-09-21T04:51:07.307Z,13.62
2017-09-21T04:52:07.716Z,13.65
2017-09-21T04:53:08.148Z,13.63
2017-09-21T04:54:08.622Z,13.65
2017-09-21T04:55:09.011Z,13.63
2017-09-21T04:56:09.442Z,13.67
2017-09-21T04:57:09.908Z,13.63
2017-09-21T04:58:10.330Z,13.70
2017-09-21T04:59:10.732Z,13.67
2017-09-21T05:00:11.192Z,13.63
2017-09-21T05:01:11.599Z,13.70
2017-09-21T05:02:12.018Z,13.72
2017-09-21T05:03:12.468Z,13.67
2017-09-21T05:04:12.883Z,13.60
2017-09-21T05:05:13.310Z,13.53
2017-09-21T05:06:13.745Z,13.57
2017-09-21T05:07:14.177Z,13.59
2017-09-21T05:08:14.616Z,13.57
2017-09-21T05:09:15.033Z,13.62
2017-09-21T05:10:15.464Z,13.63
2017-09-21T05:11:15.901Z,13.57
2017-09-21T05:12:16.328Z,13.59
2017-09-21T05:13:16.758Z,13.53
2017-09-21T05:14:17.189Z,13.52
2017-09-21T05:15:17.621Z,13.52
2017-09-21T05:16:18.051Z,13.53
2017-09-21T05:17:18.479Z,13.57
2017-09-21T05:18:18.909Z,13.63
2017-09-21T05:19:19.339Z,13.54
2017-09-21T05:20:19.772Z,13.70
2017-09-21T05:21:20.198Z,13.62
2017-09-21T05:22:20.635Z,13.71
2017-09-21T05:23:21.063Z,13.65
2017-09-21T05:24:21.501Z,13.65
2017-09-21T05:25:21.928Z,13.68
2017-09-21T05:26:22.352Z,13.81
2017-09-21T05:27:22.784Z,13.78
2017-09-21T05:28:23.214Z,13.71
2017-09-21T05:29:23.654Z,13.83
2017-09-21T05:30:24.092Z,13.78
2017-09-21T05:31:24.509Z,13.90
2017-09-21T05:32:24.937Z,13.89
2017-09-21T05:33:25.373Z,13.93
2017-09-21T05:34:25.800Z,13.92
2017-09-21T05:35:26.266Z,13.81
2017-09-21T05:36:26.672Z,13.89
2017-09-21T05:37:27.093Z,13.92
2017-09-21T05:38:27.522Z,13.81
2017-09-21T05:39:27.951Z,13.92
2017-09-21T05:40:28.412Z,13.93
2017-09-21T05:41:28.839Z,14.05
2017-09-21T05:42:29.246Z,14.03
2017-09-21T05:43:29.678Z,13.81
2017-09-21T05:44:30.107Z,13.79
2017-09-21T05:45:30.650Z,13.97
2017-09-21T05:46:30.961Z,14.00
2017-09-21T05:47:31.405Z,14.18
2017-09-21T05:48:32.223Z,14.08
2017-09-21T05:49:32.262Z,14.14
2017-09-21T05:50:32.968Z,14.25
2017-09-21T05:51:33.127Z,14.12
2017-09-21T05:52:33.591Z,13.97
2017-09-21T05:53:33.995Z,13.92
2017-09-21T05:54:34.441Z,13.79
2017-09-21T05:55:34.886Z,13.90
2017-09-21T05:56:35.454Z,14.00
2017-09-21T05:57:35.727Z,13.95
2017-09-21T05:58:36.177Z,14.00
2017-09-21T05:59:36.611Z,13.92
2017-09-21T06:00:37.022Z,13.92
2017-09-21T06:03:38.949Z,13.70
2017-09-21T06:04:38.675Z,13.77
2017-09-21T06:06:34.229Z,13.68
2017-09-21T06:07:34.660Z,13.71
2017-09-21T06:09:29.214Z,13.65
2017-09-21T06:10:29.649Z,13.71
2017-09-21T06:12:24.203Z,13.52
2017-09-21T06:13:24.640Z,13.54
2017-09-21T06:15:19.199Z,13.67
2017-09-21T06:16:19.631Z,13.71
2017-09-21T06:18:14.193Z,13.72
2017-09-21T06:19:14.641Z,13.86
2017-09-21T06:21:09.191Z,14.14
2017-09-21T06:22:09.628Z,14.63
2017-09-21T06:24:04.182Z,14.65
2017-09-21T06:25:04.620Z,14.77
2017-09-21T06:26:59.179Z,15.03
2017-09-21T06:27:59.615Z,14.85
2017-09-21T06:29:54.171Z,15.24
2017-09-21T06:30:54.609Z,15.19
2017-09-21T06:32:49.170Z,15.46
2017-09-21T06:33:49.608Z,15.35
2017-09-21T06:35:44.173Z,15.58
2017-09-21T06:36:44.612Z,15.21
2017-09-21T06:38:39.171Z,15.25
2017-09-21T06:39:39.609Z,15.04
2017-09-21T06:41:34.172Z,14.86
2017-09-21T06:42:34.612Z,15.31
2017-09-21T06:43:35.042Z,15.11
2017-09-21T06:44:35.474Z,15.00
2017-09-21T06:45:35.908Z,15.19
2017-09-21T06:46:36.345Z,15.24
2017-09-21T06:47:36.774Z,15.10
2017-09-21T06:48:37.212Z,15.09
2017-09-21T06:49:37.641Z,14.91
2017-09-21T06:50:38.072Z,14.99
2017-09-21T06:51:41.434Z,14.79
2017-09-21T06:52:38.943Z,14.77
2017-09-21T06:53:39.374Z,14.68
2017-09-21T06:54:39.809Z,14.62
2017-09-21T06:55:40.240Z,14.66
2017-09-21T06:56:40.671Z,14.55
2017-09-21T06:57:41.109Z,14.63
2017-09-21T06:58:41.536Z,14.60
2017-09-21T06:59:41.973Z,14.63
2017-09-21T07:00:42.404Z,14.73
2017-09-21T07:01:42.839Z,14.68
2017-09-21T07:02:43.268Z,14.79
2017-09-21T07:03:43.701Z,14.65
2017-09-21T07:04:44.134Z,14.70
2017-09-21T07:05:44.568Z,14.69
2017-09-21T07:06:45.001Z,14.78
2017-09-21T07:07:45.433Z,14.81
2017-09-21T07:08:45.874Z,14.72
2017-09-21T07:09:46.304Z,14.66
2017-09-21T07:10:46.734Z,14.73
2017-09-21T07:11:47.164Z,14.82
2017-09-21T07:12:47.598Z,14.77
2017-09-21T07:13:48.033Z,14.72
2017-09-21T07:14:48.465Z,14.89
2017-09-21T07:15:48.898Z,14.89
2017-09-21T07:16:49.329Z,14.96
2017-09-21T07:17:49.762Z,15.15
2017-09-21T07:18:50.201Z,15.10
2017-09-21T07:19:50.627Z,15.11
2017-09-21T07:20:51.103Z,15.21
2017-09-21T07:21:51.498Z,15.27
2017-09-21T07:22:51.936Z,15.14
2017-09-21T07:23:52.364Z,15.19
2017-09-21T07:24:52.796Z,15.28
2017-09-21T07:25:53.232Z,15.28
2017-09-21T07:26:53.673Z,15.35
2017-09-21T07:27:54.095Z,15.46
2017-09-21T07:28:54.579Z,15.67
2017-09-21T07:29:54.965Z,15.91
2017-09-21T07:30:55.400Z,16.12
2017-09-21T07:31:55.833Z,16.49
2017-09-21T07:32:56.272Z,16.90
2017-09-21T07:33:56.706Z,16.86
2017-09-21T07:34:57.142Z,16.86
2017-09-21T07:35:57.578Z,16.68
2017-09-21T07:36:58.015Z,16.61
2017-09-21T07:37:58.450Z,16.66
2017-09-21T07:38:58.891Z,16.86
2017-09-21T07:39:59.326Z,16.89
2017-09-21T07:40:59.764Z,17.26
2017-09-21T07:42:00.198Z,16.84
2017-09-21T07:43:00.636Z,16.56
2017-09-21T07:44:01.075Z,16.47
2017-09-21T07:45:01.723Z,16.33
2017-09-21T07:46:01.939Z,16.46
2017-09-21T07:47:02.390Z,16.66
2017-09-21T07:48:02.827Z,16.38
2017-09-21T07:49:03.262Z,16.42
2017-09-21T07:50:03.701Z,16.47
2017-09-21T07:51:04.137Z,16.39
2017-09-21T07:52:04.576Z,16.75
2017-09-21T07:53:05.017Z,16.93
2017-09-21T07:54:05.452Z,16.97
2017-09-21T07:55:05.888Z,16.97
2017-09-21T07:56:06.332Z,17.23
2017-09-21T07:57:06.771Z,17.05
2017-09-21T07:58:07.209Z,17.29
2017-09-21T07:59:07.647Z,17.49
2017-09-21T08:00:08.091Z,18.43
2017-09-21T08:01:08.527Z,18.93
2017-09-21T08:02:08.968Z,19.51
2017-09-21T08:03:09.408Z,19.22
2017-09-21T08:04:09.859Z,18.74
2017-09-21T08:05:10.295Z,19.55
2017-09-21T08:06:10.737Z,19.89
2017-09-21T08:07:11.181Z,20.22
2017-09-21T08:08:11.624Z,19.12
2017-09-21T08:09:12.069Z,18.35
2017-09-21T08:10:12.516Z,18.80
2017-09-21T08:11:12.961Z,19.21
2017-09-21T08:12:13.409Z,19.55
2017-09-21T08:13:13.861Z,19.02
2017-09-21T08:14:14.301Z,19.47
2017-09-21T08:15:14.808Z,18.58
2017-09-21T08:16:15.195Z,18.70
2017-09-21T08:17:15.642Z,19.51
2017-09-21T08:18:16.091Z,20.07
2017-09-21T08:19:16.593Z,20.65
2017-09-21T08:20:16.984Z,20.84
2017-09-21T08:21:17.430Z,21.55
2017-09-21T08:22:17.876Z,22.11
2017-09-21T08:23:18.325Z,21.29
2017-09-21T08:24:18.772Z,21.36
2017-09-21T08:25:19.221Z,20.51
2017-09-21T08:26:19.665Z,19.66
2017-09-21T08:27:20.116Z,19.00
2017-09-21T08:28:20.564Z,18.58
2017-09-21T08:29:21.008Z,18.66
2017-09-21T08:30:21.457Z,18.05
2017-09-21T08:31:21.904Z,17.95
2017-09-21T08:32:22.374Z,18.33
2017-09-21T08:33:22.793Z,18.63
2017-09-21T08:34:23.239Z,19.27
2017-09-21T08:35:23.683Z,19.36
2017-09-21T08:36:24.127Z,18.93
2017-09-21T08:37:24.574Z,18.89
2017-09-21T08:38:25.015Z,19.30
2017-09-21T08:39:25.460Z,19.00
2017-09-21T08:40:25.908Z,19.19
2017-09-21T08:41:26.354Z,18.62
2017-09-21T08:42:26.795Z,17.86
2017-09-21T08:43:27.246Z,17.68
2017-09-21T08:44:27.687Z,18.43
2017-09-21T08:45:28.130Z,18.26
2017-09-21T08:46:28.576Z,18.59
2017-09-21T08:47:29.013Z,19.18
2017-09-21T08:48:29.459Z,18.86
2017-09-21T08:49:29.900Z,18.44
2017-09-21T08:50:30.367Z,19.15
2017-09-21T08:51:30.788Z,19.67
2017-09-21T08:52:31.235Z,19.85
2017-09-21T08:53:31.680Z,20.93
2017-09-21T08:54:32.121Z,21.00
2017-09-21T08:55:32.575Z,20.48
2017-09-21T08:56:33.015Z,19.86
2017-09-21T08:57:33.461Z,20.24
2017-09-21T08:58:33.906Z,20.09
2017-09-21T08:59:34.362Z,19.48
2017-09-21T09:00:34.797Z,19.71
2017-09-21T09:01:35.246Z,20.14
2017-09-21T09:02:35.691Z,21.09
2017-09-21T09:03:36.136Z,20.81
2017-09-21T09:04:36.579Z,21.27
2017-09-21T09:05:37.027Z,21.72
2017-09-21T09:06:37.476Z,22.00
2017-09-21T09:07:37.920Z,22.28
2017-09-21T09:08:38.374Z,22.88
2017-09-21T09:09:38.821Z,21.05
2017-09-21T09:10:39.272Z,21.00
2017-09-21T09:11:39.726Z,21.99
2017-09-21T09:12:40.176Z,22.57
2017-09-21T09:13:40.623Z,21.30
2017-09-21T09:14:41.074Z,20.99
2017-09-21T09:15:41.540Z,22.07
2017-09-21T09:16:41.983Z,21.25
2017-09-21T09:17:42.430Z,20.69
2017-09-21T09:18:42.882Z,22.36
2017-09-21T09:19:43.335Z,21.27
2017-09-21T09:20:43.793Z,21.88
2017-09-21T09:21:44.243Z,21.88
2017-09-21T09:22:44.699Z,21.54
2017-09-21T09:23:45.166Z,20.99
2017-09-21T09:24:45.601Z,20.82
2017-09-21T09:25:46.053Z,21.15
2017-09-21T09:26:46.506Z,20.96
2017-09-21T09:27:46.955Z,21.69
2017-09-21T09:28:47.404Z,21.27
2017-09-21T09:29:47.853Z,21.32
2017-09-21T09:30:48.306Z,21.30
2017-09-21T09:31:48.759Z,20.26
2017-09-21T09:32:49.224Z,20.14
2017-09-21T09:33:49.657Z,19.62
2017-09-21T09:34:50.115Z,19.34
2017-09-21T09:35:50.569Z,19.84
2017-09-21T09:36:50.997Z,20.09
2017-09-21T09:37:51.446Z,20.11
2017-09-21T09:38:51.911Z,20.11
2017-09-21T09:39:52.350Z,20.14
2017-09-21T09:40:52.788Z,19.56
2017-09-21T09:41:53.230Z,19.59
2017-09-21T09:42:53.679Z,19.54
2017-09-21T09:43:54.126Z,19.91
2017-09-21T09:44:54.573Z,19.48
2017-09-21T09:45:55.014Z,19.00
2017-09-21T09:46:55.461Z,18.75
2017-09-21T09:47:55.917Z,19.24
2017-09-21T09:48:56.350Z,18.83
2017-09-21T09:49:56.794Z,18.78
2017-09-21T09:50:57.239Z,18.71
2017-09-21T09:51:57.729Z,18.34
2017-09-21T09:52:58.146Z,18.43
2017-09-21T09:53:58.570Z,18.60
2017-09-21T09:54:59.014Z,18.68
2017-09-21T09:55:59.484Z,18.81
2017-09-21T09:56:59.899Z,19.09
2017-09-21T09:58:00.362Z,19.37
2017-09-21T09:59:00.789Z,19.63
2017-09-21T10:00:01.228Z,19.81
2017-09-21T10:01:01.674Z,20.13
2017-09-21T10:02:02.118Z,19.96
2017-09-21T10:03:02.576Z,20.24
2017-09-21T10:04:03.013Z,19.77
2017-09-21T10:05:03.478Z,19.74
2017-09-21T10:06:03.904Z,19.66
2017-09-21T10:07:04.350Z,19.67
2017-09-21T10:08:04.824Z,19.92
2017-09-21T10:09:05.248Z,19.66
2017-09-21T10:10:05.694Z,18.77
2017-09-21T10:11:06.145Z,18.74
2017-09-21T10:12:06.590Z,18.89
2017-09-21T10:13:07.032Z,19.21
2017-09-21T10:14:07.480Z,19.44
2017-09-21T10:15:07.921Z,19.59
2017-09-21T10:16:08.371Z,19.29
2017-09-21T10:17:08.815Z,19.33
2017-09-21T10:18:09.264Z,19.88
2017-09-21T10:19:09.702Z,19.66
2017-09-21T10:20:10.149Z,19.96
2017-09-21T10:21:10.594Z,21.21
2017-09-21T10:22:11.045Z,22.23
2017-09-21T10:23:11.487Z,23.10
2017-09-21T10:24:11.935Z,24.06
2017-09-21T10:25:12.381Z,24.85
2017-09-21T10:26:12.838Z,25.59
2017-09-21T10:27:13.281Z,26.58
2017-09-21T10:28:13.733Z,27.00
2017-09-21T10:29:14.187Z,25.65
2017-09-21T10:30:14.641Z,24.99
2017-09-21T10:31:15.096Z,25.84
2017-09-21T10:32:15.544Z,26.02
2017-09-21T10:33:15.996Z,25.29
2017-09-21T10:34:16.450Z,24.58
2017-09-21T10:35:16.904Z,22.80
2017-09-21T10:36:17.359Z,22.39
2017-09-21T10:37:17.811Z,22.48
2017-09-21T10:38:18.268Z,22.51
2017-09-21T10:39:18.719Z,23.02
2017-09-21T10:40:19.168Z,22.39
2017-09-21T10:41:19.621Z,21.06
2017-09-21T10:42:20.078Z,20.97
2017-09-21T10:43:20.519Z,21.21
2017-09-21T10:44:20.968Z,21.15
2017-09-21T10:45:21.422Z,21.12
2017-09-21T10:46:21.867Z,20.99
2017-09-21T10:47:22.319Z,21.06
2017-09-21T10:48:22.764Z,20.59
2017-09-21T10:49:23.212Z,20.04
2017-09-21T10:50:23.663Z,19.96
2017-09-21T10:51:24.106Z,20.11
2017-09-21T10:52:24.556Z,19.70
2017-09-21T10:53:25.007Z,19.89
2017-09-21T10:54:25.459Z,19.73
2017-09-21T10:55:25.890Z,20.09
2017-09-21T10:56:26.341Z,19.62
2017-09-21T10:57:26.788Z,19.36
2017-09-21T10:58:27.229Z,19.18
2017-09-21T10:59:27.680Z,19.84
2017-09-21T11:00:28.121Z,19.92
2017-09-21T11:01:28.567Z,20.18
2017-09-21T11:02:29.009Z,19.99
2017-09-21T11:03:29.452Z,20.09
2017-09-21T11:04:29.897Z,20.02
2017-09-21T11:05:30.370Z,20.04
2017-09-21T11:06:30.783Z,20.24
2017-09-21T11:07:31.245Z,20.21
2017-09-21T11:08:31.689Z,20.31
2017-09-21T11:09:32.116Z,20.09
2017-09-21T11:10:32.561Z,19.94
2017-09-21T11:11:33.006Z,20.18
2017-09-21T11:12:33.455Z,20.26
2017-09-21T11:13:33.890Z,20.10
2017-09-21T11:14:34.338Z,20.26
2017-09-21T11:15:34.777Z,20.16
2017-09-21T11:16:35.262Z,19.89
2017-09-21T11:17:35.663Z,19.88
2017-09-21T11:18:36.112Z,19.84
2017-09-21T11:19:36.550Z,20.10
2017-09-21T11:20:36.994Z,20.14
2017-09-21T11:21:37.436Z,20.19
2017-09-21T11:22:37.895Z,20.26
2017-09-21T11:23:38.330Z,20.31
2017-09-21T11:24:38.767Z,20.07
2017-09-21T11:25:39.212Z,20.14
2017-09-21T11:26:39.663Z,20.14
2017-09-21T11:27:40.098Z,20.36
2017-09-21T11:28:40.562Z,20.56
2017-09-21T11:29:40.988Z,20.56
2017-09-21T11:30:41.444Z,20.36
2017-09-21T11:31:41.877Z,19.56
2017-09-21T11:32:42.327Z,19.77
2017-09-21T11:33:42.767Z,19.56
2017-09-21T11:34:43.235Z,19.85
2017-09-21T11:35:43.656Z,19.59
2017-09-21T11:36:44.096Z,19.79
2017-09-21T11:37:44.543Z,19.45
2017-09-21T11:38:44.988Z,19.89
2017-09-21T11:39:45.431Z,20.06
2017-09-21T11:40:45.879Z,19.82
2017-09-21T11:41:46.320Z,19.56
2017-09-21T11:42:46.760Z,19.63
2017-09-21T11:43:47.201Z,19.64
2017-09-21T11:44:47.645Z,19.51
2017-09-21T11:45:48.091Z,19.45
2017-09-21T11:46:48.536Z,19.76
2017-09-21T11:47:48.978Z,19.62
2017-09-21T11:48:49.430Z,19.84
2017-09-21T11:49:49.861Z,19.66
2017-09-21T11:50:50.303Z,19.92
2017-09-21T11:51:50.748Z,19.70
2017-09-21T11:52:51.194Z,19.64
2017-09-21T11:53:51.628Z,19.69
2017-09-21T11:54:52.068Z,19.67
2017-09-21T11:55:52.518Z,19.51
2017-09-21T11:56:52.962Z,19.54
2017-09-21T11:57:53.395Z,19.26
2017-09-21T11:58:53.840Z,19.16
2017-09-21T11:59:54.293Z,19.34
2017-09-21T12:00:54.730Z,19.59
2017-09-21T12:01:55.206Z,19.70
2017-09-21T12:02:55.614Z,19.48
2017-09-21T12:04:56.519Z,19.29
2017-09-21T12:05:56.963Z,19.24
2017-09-21T12:06:57.392Z,19.29
2017-09-21T12:07:57.837Z,19.37
2017-09-21T12:08:58.298Z,18.92
2017-09-21T12:09:58.720Z,18.92
2017-09-21T12:11:20.335Z,18.90
2017-09-21T12:11:59.615Z,18.81
2017-09-21T12:13:00.066Z,18.93
2017-09-21T12:14:00.486Z,18.90
2017-09-21T12:15:00.924Z,18.80
2017-09-21T12:16:01.364Z,18.90
2017-09-21T12:17:22.978Z,18.84
2017-09-21T12:18:02.246Z,18.56
2017-09-21T12:19:02.693Z,18.56
2017-09-21T12:20:03.161Z,18.50
2017-09-21T12:21:03.597Z,18.22
2017-09-21T12:22:04.028Z,18.03
2017-09-21T12:23:25.632Z,18.03
2017-09-21T12:24:04.909Z,18.04
2017-09-21T12:25:05.337Z,17.78
2017-09-21T12:26:05.785Z,17.60
2017-09-21T12:27:06.210Z,17.79
2017-09-21T12:28:06.678Z,17.72
2017-09-21T12:29:28.256Z,17.64
2017-09-21T12:30:07.579Z,17.52
2017-09-21T12:31:07.980Z,17.34
2017-09-21T12:32:08.412Z,17.38
2017-09-21T12:33:08.836Z,17.41
2017-09-21T12:34:09.275Z,17.51
2017-09-21T12:35:30.874Z,17.33
2017-09-21T12:36:10.184Z,17.31
2017-09-21T12:37:10.587Z,17.26
2017-09-21T12:38:11.020Z,17.34
2017-09-21T12:39:11.463Z,17.29
2017-09-21T12:40:11.900Z,17.30
2017-09-21T12:41:33.498Z,17.23
2017-09-21T12:42:12.767Z,17.27
2017-09-21T12:43:13.234Z,17.27
2017-09-21T12:44:13.651Z,17.16
2017-09-21T12:45:14.089Z,17.20
2017-09-21T12:46:14.519Z,17.30
2017-09-21T12:47:36.117Z,17.22
2017-09-21T12:48:15.388Z,17.27
2017-09-21T12:49:15.823Z,17.36
2017-09-21T12:50:16.269Z,17.33
2017-09-21T12:51:16.716Z,17.23
2017-09-21T12:52:17.145Z,17.36
2017-09-21T12:53:38.741Z,17.39
2017-09-21T12:54:18.002Z,17.51
2017-09-21T12:55:18.458Z,17.41
2017-09-21T12:56:18.880Z,17.41
2017-09-21T12:57:19.318Z,17.42
2017-09-21T12:58:19.754Z,17.49
2017-09-21T12:59:41.351Z,17.56
2017-09-21T13:00:20.647Z,17.60
2017-09-21T13:01:21.079Z,17.52
2017-09-21T13:02:21.502Z,17.57
2017-09-21T13:03:21.929Z,17.60
2017-09-21T13:04:22.464Z,17.51
2017-09-21T13:05:44.013Z,17.65
2017-09-21T13:06:23.281Z,17.63
2017-09-21T13:07:23.759Z,17.57
2017-09-21T13:08:24.180Z,17.60
2017-09-21T13:09:24.598Z,17.57
2017-09-21T13:10:25.031Z,17.54
2017-09-21T13:11:46.660Z,17.51
2017-09-21T13:12:25.915Z,17.36